LFJL/ETZ METAR and TAF weather

Enter ICAO airport designator
Station Type Date Time Source
LFJL METAR 2019/04/26 03:30 UTC NOAA

LFJL 260330Z AUTO 19008KT 9999 FEW018 SCT030 OVC062 07/07 Q1012 TEMPO BKN007


Station Type Date Time Source
LFJL Decoded METAR 2019/04/26 03:30 UTC NOAA

Metz-Nancy-Lorraine, France (LFJL) 48-59N 006-15E
Apr 25, 2019 - 11:30 PM EDT / 2019.04.26 0330 UTC
Wind: from the S (190 degrees) at 9 MPH (8 KT):0
Visibility: greater than 7 mile(s):0
Sky conditions: overcast
Temperature: 44 F (7 C)
Dew Point: 44 F (7 C)
Relative Humidity: 100%
Pressure (altimeter): 29.88 in. Hg (1012 hPa)
ob: LFJL 260330Z AUTO 19008KT 9999 FEW018 SCT030 OVC062 07/07 Q1012 TEMPO BKN007
cycle: 3

Station Type Date Time Source
LFJL TAF 2019/04/25 20:51 UTC NOAA

TAF
AMD LFJL 252042Z 2520/2618 19010KT 9999 SCT007 OVC050
TEMPO 2520/2523 4000 RA BKN007 FEW040TCU PROB40
TEMPO 2600/2608 -RA BKN012 PROB40
TEMPO 2613/2618 SHRA FEW040CB BKN050

Example: see airport list